Time;durP1;ratioP1;P1;durP2;ratioP2;P2;SDS_P1;SDS_P2;PMS_P1;PMS_P2;Temp;Humidity;BMP_temperature;BMP_pressure;BME280_temperature;BME280_humidity;BME280_pressure;Samples;Min_cycle;Max_cycle;Signal;HPM_P1;HPM_P2
2022/07/17 00:01:37;;;;;;;5.40;4.70;;;;;;;11.92;84.40;99049.23;106544;1277;22567;-81
2022/07/17 00:04:04;;;;;;;6.70;5.00;;;;;;;11.95;84.36;99049.98;106286;1277;138269;-81
2022/07/17 00:06:31;;;;;;;8.50;5.00;;;;;;;12.00;84.71;99053.50;106234;1277;24421;-81
2022/07/17 00:09:00;;;;;;;8.00;5.70;;;;;;;12.03;84.47;99051.66;106388;1277;137551;-83
2022/07/17 00:11:29;;;;;;;;;;;;;;;12.05;84.42;99050.13;106609;1277;25426;-81
2022/07/17 00:14:01;;;;;;;6.10;5.30;;;;;;;12.07;84.15;99053.44;106237;1277;124585;-82
2022/07/17 00:16:29;;;;;;;9.40;6.10;;;;;;;12.08;84.46;99054.27;106312;1277;24295;-81
2022/07/17 00:19:00;;;;;;;8.00;5.90;;;;;;;12.06;84.58;99052.98;106502;1277;24221;-81
2022/07/17 00:21:42;;;;;;;9.40;7.00;;;;;;;12.07;84.64;99053.39;106366;1279;138461;-81
2022/07/17 00:24:11;;;;;;;9.40;6.50;;;;;;;12.07;84.44;99055.23;106390;1277;22772;-81
2022/07/17 00:26:41;;;;;;;11.20;7.10;;;;;;;12.08;84.65;99058.96;106544;1274;138899;-81
2022/07/17 00:29:22;;;;;;;11.00;6.80;;;;;;;12.07;84.57;99060.54;106527;1277;23249;-81
2022/07/17 00:31:49;;;;;;;11.60;7.40;;;;;;;12.08;84.70;99062.63;106472;1277;24367;-81
2022/07/17 00:34:16;;;;;;;10.90;7.70;;;;;;;12.08;84.72;99068.87;106268;1278;137607;-81
2022/07/17 00:36:43;;;;;;;11.40;8.20;;;;;;;12.06;84.68;99067.06;106343;1278;22547;-81
2022/07/17 00:39:10;;;;;;;10.10;7.90;;;;;;;12.04;84.70;99068.27;106415;1278;138252;-81
2022/07/17 00:41:37;;;;;;;10.70;7.30;;;;;;;12.03;84.34;99073.29;106519;1277;24367;-81
2022/07/17 00:44:12;;;;;;;12.90;8.90;;;;;;;12.00;84.85;99074.79;106581;1278;138149;-81
2022/07/17 00:46:40;;;;;;;12.40;9.70;;;;;;;11.96;84.89;99077.29;106309;1278;30605;-81
2022/07/17 00:49:07;;;;;;;13.20;9.30;;;;;;;11.95;85.09;99075.44;106443;1277;22776;-83
2022/07/17 00:51:35;;;;;;;14.80;9.40;;;;;;;11.92;85.20;99074.79;106308;1277;138643;-80
2022/07/17 00:54:06;;;;;;;14.50;10.60;;;;;;;11.90;85.08;99077.09;106700;1277;22594;-81
2022/07/17 00:56:34;;;;;;;15.00;10.90;;;;;;;11.89;85.24;99074.52;106232;1277;138566;-81
2022/07/17 00:59:03;;;;;;;15.20;11.90;;;;;;;11.87;85.15;99069.73;106279;1278;25378;-81
2022/07/17 01:01:30;;;;;;;14.40;11.00;;;;;;;11.83;85.26;99068.89;106336;1278;22795;-80
2022/07/17 01:03:59;;;;;;;15.40;11.30;;;;;;;11.81;85.33;99076.69;106565;1278;140635;-81
2022/07/17 01:06:26;;;;;;;17.90;10.70;;;;;;;11.80;85.40;99072.56;106594;1277;22568;-81
2022/07/17 01:08:53;;;;;;;18.20;12.90;;;;;;;11.78;85.35;99078.80;106256;1278;138247;-81
2022/07/17 01:11:23;;;;;;;16.20;12.10;;;;;;;11.74;85.20;99080.51;106651;1277;22808;-81
2022/07/17 01:13:54;;;;;;;15.30;12.00;;;;;;;11.69;85.48;99080.17;106261;1277;22678;-80
2022/07/17 01:16:35;;;;;;;16.90;12.40;;;;;;;11.66;85.36;99081.31;106847;1277;22591;-81
2022/07/17 01:19:02;;;;;;;16.10;12.20;;;;;;;11.67;85.60;99079.29;106368;1277;25259;-81
2022/07/17 01:21:45;;;;;;;17.10;13.30;;;;;;;11.67;85.74;99077.90;106811;1277;138626;-81
2022/07/17 01:24:15;;;;;;;17.90;13.50;;;;;;;11.67;85.49;99078.00;106516;1277;24268;-80
2022/07/17 01:26:45;;;;;;;17.40;12.40;;;;;;;11.65;85.76;99075.42;106577;1277;138670;-80
2022/07/17 01:29:15;;;;;;;18.00;12.20;;;;;;;11.65;85.62;99077.24;106969;1277;22657;-80
2022/07/17 01:31:45;;;;;;;16.10;11.90;;;;;;;11.64;85.65;99079.95;106465;1278;25333;-81
2022/07/17 01:34:26;;;;;;;16.50;12.80;;;;;;;11.65;85.71;99079.25;106315;1277;22711;-80
2022/07/17 01:36:53;;;;;;;19.90;15.00;;;;;;;11.62;85.75;99078.76;106647;1277;22563;-81
2022/07/17 01:39:52;;;;;;;17.70;13.10;;;;;;;11.58;85.71;99081.79;106473;1278;138035;-80
2022/07/17 01:42:10;;;;;;;19.50;14.00;;;;;;;11.55;85.85;99074.38;106771;1277;25315;-80
2022/07/17 01:44:37;;;;;;;16.70;13.20;;;;;;;11.53;85.58;99073.65;106593;1277;138722;-80
2022/07/17 01:47:07;;;;;;;18.20;13.40;;;;;;;11.52;85.95;99070.27;106333;1277;22535;-80
2022/07/17 01:49:34;;;;;;;17.70;13.50;;;;;;;11.51;85.70;99069.91;106498;1277;22538;-80
2022/07/17 01:52:01;;;;;;;17.40;13.00;;;;;;;11.50;85.67;99072.04;106722;1277;138032;-80
2022/07/17 01:54:29;;;;;;;18.90;13.50;;;;;;;11.49;85.78;99072.84;106470;1277;25257;-79
2022/07/17 01:56:59;;;;;;;18.00;12.90;;;;;;;11.47;85.86;99072.39;106082;1278;138744;-80
2022/07/17 01:59:27;;;;;;;19.50;12.70;;;;;;;11.45;85.59;99072.67;106603;1277;23599;-80
2022/07/17 02:02:08;;;;;;;19.40;13.30;;;;;;;11.39;85.49;99069.86;106515;1277;138614;-80
2022/07/17 02:04:37;;;;;;;17.60;13.80;;;;;;;11.35;85.70;99071.95;106553;1277;22569;-80
2022/07/17 02:07:04;;;;;;;20.40;14.40;;;;;;;11.31;85.71;99072.34;106233;1277;24316;-80
2022/07/17 02:09:31;;;;;;;20.40;15.00;;;;;;;11.25;85.62;99068.88;106444;1277;138954;-80
2022/07/17 02:11:58;;;;;;;19.30;14.80;;;;;;;11.22;85.84;99069.39;106540;1277;24281;-80
2022/07/17 02:14:39;;;;;;;25.10;15.60;;;;;;;11.20;86.40;99074.47;106327;1277;137930;-80
2022/07/17 02:17:06;;;;;;;22.20;14.40;;;;;;;11.18;86.43;99071.25;106486;1277;22572;-80
2022/07/17 02:19:33;;;;;;;20.30;14.30;;;;;;;11.18;86.32;99074.68;106523;1277;22564;-80
2022/07/17 02:22:00;;;;;;;19.30;14.30;;;;;;;11.17;86.51;99081.38;106259;1277;138491;-80
2022/07/17 02:24:27;;;;;;;20.40;13.40;;;;;;;11.16;86.37;99073.80;106496;1277;23066;-80
2022/07/17 02:26:55;;;;;;;22.00;14.60;;;;;;;11.17;86.47;99075.34;106724;1277;137908;-80
2022/07/17 02:29:24;;;;;;;19.90;14.40;;;;;;;11.16;86.24;99073.33;106651;1277;22553;-80
2022/07/17 02:31:53;;;;;;;21.00;13.10;;;;;;;11.15;86.37;99073.40;106333;1277;22579;-80
2022/07/17 02:34:20;;;;;;;19.50;13.30;;;;;;;11.14;86.46;99074.76;106245;1277;139025;-80
2022/07/17 02:36:48;;;;;;;21.20;13.90;;;;;;;11.15;86.62;99077.33;106310;1277;25249;-82
2022/07/17 02:39:15;;;;;;;21.80;14.90;;;;;;;11.13;86.55;99075.45;105988;1279;138367;-82
2022/07/17 02:41:42;;;;;;;20.60;12.90;;;;;;;11.10;86.95;99078.74;106234;1278;22685;-80
2022/07/17 02:44:09;;;;;;;18.10;13.40;;;;;;;11.08;86.84;99077.03;106471;1277;138779;-82
2022/07/17 02:46:36;;;;;;;20.10;13.90;;;;;;;11.05;86.88;99078.29;106404;1277;22599;-81
2022/07/17 02:49:03;;;;;;;22.80;13.90;;;;;;;11.04;86.87;99081.73;106164;1278;22695;-81
2022/07/17 02:51:30;;;;;;;20.20;14.70;;;;;;;11.04;87.30;99081.58;106086;1277;138225;-81
2022/07/17 02:53:57;;;;;;;19.30;13.40;;;;;;;11.04;87.24;99084.30;106327;1277;22538;-81
2022/07/17 02:56:23;;;;;;;19.60;13.20;;;;;;;11.01;87.03;99077.80;106173;1275;139146;-81
2022/07/17 02:58:50;;;;;;;19.80;13.30;;;;;;;11.01;87.37;99081.45;106217;1277;22563;-81
2022/07/17 03:01:17;;;;;;;21.40;14.00;;;;;;;11.03;87.59;99082.64;106073;1279;22541;-83
2022/07/17 03:03:45;;;;;;;19.50;12.40;;;;;;;11.02;87.72;99087.35;106120;1277;138482;-82
2022/07/17 03:06:26;;;;;;;21.00;13.40;;;;;;;10.98;87.44;99086.69;106141;1277;26573;-81
2022/07/17 03:08:53;;;;;;;23.70;14.90;;;;;;;10.96;88.03;99088.14;106411;1277;138438;-82
2022/07/17 03:11:20;;;;;;;20.70;13.80;;;;;;;10.98;87.76;99086.39;106385;1277;26475;-83
2022/07/17 03:13:47;;;;;;;19.30;13.90;;;;;;;11.00;88.03;99086.32;106374;1277;23047;-85
2022/07/17 03:16:14;;;;;;;22.80;15.30;;;;;;;11.02;87.77;99085.50;106173;1277;137829;-84
2022/07/17 03:18:40;;;;;;;21.60;15.10;;;;;;;11.04;87.81;99092.10;106231;1278;23964;-83
2022/07/17 03:21:21;;;;;;;22.40;15.10;;;;;;;11.02;87.80;99091.45;106144;1277;138339;-83
2022/07/17 03:23:48;;;;;;;19.90;14.20;;;;;;;11.00;87.51;99094.63;106435;1277;22537;-84
2022/07/17 03:26:15;;;;;;;22.60;14.80;;;;;;;10.99;87.51;99097.70;106326;1277;138747;-85
2022/07/17 03:28:42;;;;;;;20.80;15.00;;;;;;;10.99;87.71;99098.06;106298;1277;25309;-85
2022/07/17 03:31:09;;;;;;;26.70;15.70;;;;;;;11.01;87.72;99098.79;106222;1277;23222;-83
2022/07/17 03:33:36;;;;;;;23.50;15.30;;;;;;;11.05;88.15;99102.98;106351;1277;138472;-81
2022/07/17 03:36:03;;;;;;;21.00;14.20;;;;;;;11.12;88.24;99102.00;106135;1277;23388;-83
2022/07/17 03:38:30;;;;;;;23.60;15.20;;;;;;;11.18;88.25;99109.04;105772;1277;138628;-83
2022/07/17 03:40:57;;;;;;;19.80;13.00;;;;;;;11.27;88.11;99109.70;106259;1277;25328;-85
2022/07/17 03:43:24;;;;;;;24.70;15.80;;;;;;;11.33;87.65;99112.70;106361;1277;24269;-83
2022/07/17 03:45:50;;;;;;;24.00;14.70;;;;;;;11.35;87.58;99111.45;106524;1277;137852;-85
2022/07/17 03:48:18;;;;;;;24.90;15.40;;;;;;;11.37;87.14;99115.52;106217;1277;22595;-83
2022/07/17 03:50:44;;;;;;;21.10;13.40;;;;;;;11.37;86.89;99115.89;106147;1277;138502;-81
2022/07/17 03:53:11;;;;;;;24.40;14.40;;;;;;;11.37;86.81;99118.56;106360;1277;25254;-81
2022/07/17 03:55:38;;;;;;;19.80;13.40;;;;;;;11.37;86.65;99121.52;106066;1277;24235;-74
2022/07/17 03:58:05;;;;;;;23.40;14.20;;;;;;;11.36;87.07;99122.65;105878;1277;138183;-77
2022/07/17 04:00:32;;;;;;;20.60;14.10;;;;;;;11.33;86.60;99121.48;106206;1277;22571;-77
2022/07/17 04:02:59;;;;;;;19.70;13.70;;;;;;;11.30;86.85;99122.05;106115;1277;138416;-86
2022/07/17 04:05:26;;;;;;;20.20;13.00;;;;;;;11.34;87.10;99130.94;106445;1277;22538;-80
2022/07/17 04:07:53;;;;;;;18.60;13.20;;;;;;;11.37;86.59;99129.60;106188;1277;25257;-80
2022/07/17 04:10:20;;;;;;;23.30;14.70;;;;;;;11.39;86.73;99132.33;106124;1277;137688;-84
2022/07/17 04:12:48;;;;;;;23.60;14.30;;;;;;;11.43;86.71;99135.52;106594;1277;24360;-83
2022/07/17 04:15:49;;;;;;;19.60;13.10;;;;;;;11.47;86.51;99135.44;106024;1277;138166;-84
2022/07/17 04:18:01;;;;;;;20.20;13.40;;;;;;;11.49;86.29;99136.17;106217;1277;26156;-82
2022/07/17 04:20:43;;;;;;;24.30;13.70;;;;;;;11.50;86.17;99134.81;105969;1277;138559;-82
2022/07/17 04:23:11;;;;;;;19.30;13.00;;;;;;;11.47;86.05;99135.99;106469;1277;22552;-81
2022/07/17 04:25:38;;;;;;;20.40;13.30;;;;;;;11.44;86.26;99136.70;106228;1277;25257;-81
2022/07/17 04:28:05;;;;;;;17.70;11.70;;;;;;;11.45;86.50;99143.52;106434;1277;139223;-81
2022/07/17 04:30:32;;;;;;;18.20;11.00;;;;;;;11.44;86.12;99147.29;106568;1280;25309;-81
2022/07/17 04:32:59;;;;;;;16.80;12.10;;;;;;;11.47;86.43;99146.86;106271;1277;138193;-81
2022/07/17 04:35:27;;;;;;;17.60;12.00;;;;;;;11.48;86.41;99151.78;106646;1277;25536;-82
2022/07/17 04:37:53;;;;;;;16.70;11.60;;;;;;;11.49;86.52;99151.73;106420;1277;22563;-81
2022/07/17 04:40:20;;;;;;;18.60;10.80;;;;;;;11.52;86.27;99151.52;106445;1277;138492;-81
2022/07/17 04:42:48;;;;;;;15.60;10.90;;;;;;;11.55;86.59;99154.70;106696;1277;22676;-81
2022/07/17 04:45:15;;;;;;;15.80;10.70;;;;;;;11.60;86.46;99158.64;106346;1277;138731;-80
2022/07/17 04:47:42;;;;;;;17.50;10.90;;;;;;;11.63;86.52;99156.76;106914;1276;25034;-80
2022/07/17 04:50:09;;;;;;;14.70;10.00;;;;;;;11.69;86.31;99156.13;106539;1276;137724;-81
2022/07/17 04:52:37;;;;;;;17.30;10.00;;;;;;;11.72;86.66;99157.15;106845;1277;22557;-80
2022/07/17 04:55:17;;;;;;;11.90;8.30;;;;;;;11.81;86.48;99161.50;106784;1277;22523;-82
2022/07/17 04:57:45;;;;;;;16.60;10.20;;;;;;;11.87;86.32;99162.24;106373;1277;138114;-79
2022/07/17 05:00:13;;;;;;;15.10;9.90;;;;;;;11.94;86.13;99165.08;106417;1277;25375;-82
2022/07/17 05:02:40;;;;;;;13.60;8.70;;;;;;;11.99;86.20;99162.23;106643;1277;138317;-79
2022/07/17 05:05:07;;;;;;;15.90;8.30;;;;;;;12.04;85.92;99169.02;106387;1277;25356;-82
2022/07/17 05:07:34;;;;;;;11.80;7.30;;;;;;;12.12;86.18;99170.31;106295;1277;22990;-81
2022/07/17 05:10:01;;;;;;;13.90;8.30;;;;;;;12.20;85.78;99165.60;106430;1277;137924;-81
2022/07/17 05:12:28;;;;;;;10.60;7.60;;;;;;;12.26;85.97;99172.75;106488;1277;22727;-81
2022/07/17 05:14:55;;;;;;;12.10;8.00;;;;;;;12.31;85.39;99169.25;106258;1277;137581;-81
2022/07/17 05:17:21;;;;;;;11.40;7.10;;;;;;;12.35;85.34;99169.94;106409;1278;22538;-81
2022/07/17 05:19:48;;;;;;;9.90;6.20;;;;;;;12.40;85.24;99168.41;106750;1277;22995;-81
2022/07/17 05:22:15;;;;;;;10.40;6.20;;;;;;;12.48;85.32;99170.45;106527;1277;138134;-80
2022/07/17 05:24:42;;;;;;;9.00;5.60;;;;;;;12.56;84.84;99169.04;106569;1277;23903;-81
2022/07/17 05:27:09;;;;;;;9.10;6.50;;;;;;;12.64;84.76;99175.65;106478;1277;138295;-81
2022/07/17 05:29:36;;;;;;;8.00;5.40;;;;;;;12.72;85.11;99175.70;106377;1277;22601;-81
2022/07/17 05:32:04;;;;;;;7.20;5.00;;;;;;;12.81;84.80;99175.17;106501;1277;138484;-82
2022/07/17 05:34:44;;;;;;;9.20;5.40;;;;;;;12.91;84.51;99178.66;106445;1277;23795;-82
2022/07/17 05:37:11;;;;;;;8.20;5.20;;;;;;;13.00;84.30;99176.60;106627;1277;22573;-80
2022/07/17 05:39:39;;;;;;;9.90;5.60;;;;;;;13.08;84.27;99177.48;106396;1277;137552;-80
2022/07/17 05:42:06;;;;;;;10.10;5.00;;;;;;;13.15;84.07;99174.86;106559;1276;22589;-81
2022/07/17 05:44:33;;;;;;;9.50;3.60;;;;;;;13.22;83.41;99181.19;106604;1277;138418;-81
2022/07/17 05:47:00;;;;;;;8.30;4.20;;;;;;;13.30;83.29;99182.88;106883;1277;25235;-81
2022/07/17 05:49:27;;;;;;;7.40;4.50;;;;;;;13.39;83.08;99179.45;106723;1277;24219;-81
2022/07/17 05:51:54;;;;;;;7.60;3.70;;;;;;;13.49;82.89;99183.35;106462;1277;137706;-81
2022/07/17 05:54:35;;;;;;;9.10;3.30;;;;;;;13.57;81.93;99178.95;106558;1277;22598;-81
2022/07/17 05:57:03;;;;;;;9.60;4.00;;;;;;;13.64;81.78;99185.52;106500;1276;137980;-82
2022/07/17 05:59:30;;;;;;;7.30;3.80;;;;;;;13.72;82.04;99188.56;106700;1277;24380;-81
2022/07/17 06:01:57;;;;;;;7.40;4.10;;;;;;;13.82;81.67;99188.67;106827;1277;22561;-81
2022/07/17 06:04:24;;;;;;;7.70;3.20;;;;;;;13.92;81.68;99190.33;106581;1277;22682;-83
2022/07/17 06:06:51;;;;;;;10.20;3.00;;;;;;;14.00;80.44;99191.27;106419;1277;24433;-81
2022/07/17 06:09:32;;;;;;;8.70;3.30;;;;;;;14.06;79.75;99191.74;106566;1277;137695;-81
2022/07/17 06:11:59;;;;;;;8.10;3.20;;;;;;;14.12;79.73;99195.30;106492;1278;22714;-82
2022/07/17 06:14:26;;;;;;;5.40;2.80;;;;;;;14.19;79.26;99196.39;106325;1278;138649;-82
2022/07/17 06:17:06;;;;;;;7.80;3.40;;;;;;;14.28;79.22;99202.23;106536;1277;22578;-82
2022/07/17 06:19:33;;;;;;;8.50;3.10;;;;;;;14.34;78.75;99197.50;106379;1278;22553;-82
2022/07/17 06:22:01;;;;;;;5.60;2.60;;;;;;;14.42;78.54;99201.17;106331;1277;137620;-84
2022/07/17 06:24:27;;;;;;;6.90;3.10;;;;;;;14.49;77.86;99209.10;106545;1277;22665;-85
2022/07/17 06:26:54;;;;;;;6.10;2.80;;;;;;;14.54;77.32;99209.67;106397;1276;138196;-82
2022/07/17 06:29:21;;;;;;;5.50;2.80;;;;;;;14.61;77.54;99210.30;106841;1277;22557;-83
2022/07/17 06:31:48;;;;;;;7.10;2.60;;;;;;;14.70;77.23;99213.65;106460;1277;22600;-81
2022/07/17 06:34:15;;;;;;;8.70;2.60;;;;;;;14.78;77.37;99215.40;106718;1276;137492;-82
2022/07/17 06:36:56;;;;;;;5.60;2.60;;;;;;;14.88;77.09;99219.81;106305;1277;22538;-82
2022/07/17 06:39:23;;;;;;;6.10;3.00;;;;;;;14.97;77.15;99223.38;106449;1277;138305;-83
2022/07/17 06:41:50;;;;;;;10.10;3.90;;;;;;;15.07;76.60;99219.98;107144;1277;22574;-82
2022/07/17 06:44:17;;;;;;;8.30;3.20;;;;;;;15.17;76.48;99220.77;106410;1276;138032;-82
2022/07/17 06:46:44;;;;;;;7.40;2.90;;;;;;;15.26;76.23;99214.83;106606;1277;22708;-81
2022/07/17 06:49:11;;;;;;;10.80;2.50;;;;;;;15.35;76.08;99212.02;106562;1276;22541;-82
2022/07/17 06:51:52;;;;;;;4.50;2.40;;;;;;;15.43;75.77;99210.42;106554;1277;137516;-84
2022/07/17 06:54:19;;;;;;;6.70;2.50;;;;;;;15.48;75.28;99207.93;107115;1277;22557;-82
2022/07/17 06:56:46;;;;;;;5.20;2.30;;;;;;;15.57;75.06;99212.04;106577;1277;138295;-84
2022/07/17 06:59:12;;;;;;;6.20;2.60;;;;;;;15.64;74.50;99214.08;106583;1277;22681;-83
2022/07/17 07:01:39;;;;;;;5.80;2.30;;;;;;;15.70;74.06;99214.09;106613;1277;22751;-84
2022/07/17 07:04:06;;;;;;;6.30;2.30;;;;;;;15.77;74.00;99215.84;106612;1277;137731;-84
2022/07/17 07:06:34;;;;;;;7.90;2.20;;;;;;;15.84;73.64;99215.79;106694;1277;24424;-82
2022/07/17 07:09:01;;;;;;;8.10;2.70;;;;;;;15.92;73.42;99213.55;106413;1277;137544;-82
2022/07/17 07:11:28;;;;;;;7.80;2.40;;;;;;;16.01;73.73;99211.86;106639;1276;22538;-84
2022/07/17 07:13:55;;;;;;;8.10;2.60;;;;;;;16.11;72.96;99213.26;106886;1277;22567;-83
2022/07/17 07:16:22;;;;;;;5.10;2.40;;;;;;;16.22;72.59;99212.57;106270;1277;137647;-83
2022/07/17 07:18:50;;;;;;;6.00;2.60;;;;;;;16.33;72.29;99218.77;106330;1277;25026;-83
2022/07/17 07:21:16;;;;;;;7.40;2.60;;;;;;;16.40;72.19;99215.95;106442;1277;138143;-84
2022/07/17 07:23:44;;;;;;;6.90;2.60;;;;;;;16.50;71.64;99220.41;106460;1277;22554;-85
2022/07/17 07:26:11;;;;;;;5.80;2.40;;;;;;;16.49;70.76;99218.64;106636;1277;138192;-83
2022/07/17 07:28:38;;;;;;;6.90;3.20;;;;;;;16.49;71.09;99221.00;106599;1276;22535;-83
2022/07/17 07:31:05;;;;;;;5.80;2.50;;;;;;;16.59;71.20;99219.75;106454;1277;22496;-84
2022/07/17 07:33:46;;;;;;;6.40;2.60;;;;;;;16.73;70.77;99221.04;106550;1276;138015;-83
2022/07/17 07:36:13;;;;;;;6.30;2.20;;;;;;;16.85;70.29;99219.85;106304;1277;22547;-83
2022/07/17 07:38:54;;;;;;;3.10;1.40;;;;;;;16.98;69.74;99217.56;106377;1277;137638;-85
2022/07/17 07:41:21;;;;;;;4.80;1.50;;;;;;;17.05;66.03;99212.04;106355;1277;22775;-85
2022/07/17 07:43:48;;;;;;;4.40;1.40;;;;;;;17.12;66.15;99222.08;106567;1276;24316;-84
2022/07/17 07:46:28;;;;;;;5.40;1.40;;;;;;;17.23;63.90;99215.39;106583;1277;24378;-83
2022/07/17 07:48:56;;;;;;;4.90;1.20;;;;;;;17.31;62.46;99211.96;106416;1277;25271;-87
2022/07/17 07:51:24;;;;;;;2.00;1.00;;;;;;;17.42;63.47;99214.08;106540;1277;137451;-88
2022/07/17 07:53:51;;;;;;;3.40;1.10;;;;;;;17.55;62.41;99214.83;106433;1277;23215;-89
2022/07/17 07:56:18;;;;;;;5.20;1.30;;;;;;;17.62;60.78;99218.59;106224;1277;138182;-88
2022/07/17 07:58:45;;;;;;;5.20;0.90;;;;;;;17.70;60.70;99219.97;106222;1277;24524;-86
2022/07/17 08:01:12;;;;;;;2.70;0.90;;;;;;;17.85;60.69;99223.82;106435;1276;25326;-86
2022/07/17 08:03:39;;;;;;;2.00;0.50;;;;;;;17.98;58.62;99224.99;106416;1277;137817;-86
2022/07/17 08:06:20;;;;;;;2.50;0.80;;;;;;;18.14;58.01;99230.73;106391;1277;22748;-84
2022/07/17 08:08:47;;;;;;;4.30;1.00;;;;;;;18.29;57.59;99228.89;106561;1276;138020;-87
2022/07/17 08:11:14;;;;;;;3.70;1.10;;;;;;;18.42;58.31;99229.60;106876;1276;22525;-85
2022/07/17 08:13:55;;;;;;;2.70;0.90;;;;;;;18.52;56.91;99231.96;106656;1277;23694;-87
2022/07/17 08:16:23;;;;;;;3.30;1.50;;;;;;;18.56;56.54;99236.54;106648;1277;137260;-88
2022/07/17 08:18:50;;;;;;;2.50;0.70;;;;;;;18.63;55.89;99233.99;106271;1277;22665;-88
2022/07/17 08:21:31;;;;;;;5.40;1.10;;;;;;;18.76;56.38;99236.89;106443;1277;137415;-87
2022/07/17 08:23:58;;;;;;;3.30;0.90;;;;;;;18.74;54.03;99242.67;106488;1277;23372;-84
2022/07/17 08:26:25;;;;;;;1.70;0.90;;;;;;;18.80;54.73;99244.67;106432;1276;137541;-85
2022/07/17 08:28:52;;;;;;;2.00;1.00;;;;;;;18.90;53.11;99248.67;106354;1277;22852;-86
2022/07/17 08:31:19;;;;;;;1.30;0.70;;;;;;;18.89;52.25;99241.58;106332;1277;24414;-84
2022/07/17 08:33:46;;;;;;;1.40;0.80;;;;;;;18.80;52.07;99243.45;106227;1277;138211;-85
2022/07/17 08:36:13;;;;;;;3.00;1.10;;;;;;;18.66;53.04;99249.87;106197;1277;24209;-86
2022/07/17 08:38:40;;;;;;;2.40;1.40;;;;;;;18.73;53.62;99249.58;106716;1278;137557;-91
2022/07/17 08:41:09;;;;;;;1.90;0.80;;;;;;;19.00;53.39;99253.02;106805;1277;23534;-86
2022/07/17 08:43:52;;;;;;;1.80;0.80;;;;;;;19.06;51.81;99255.27;106830;1277;22641;-88
2022/07/17 08:46:23;;;;;;;1.50;0.70;;;;;;;19.06;51.21;99254.98;107045;1277;138013;-89
2022/07/17 08:48:56;;;;;;;3.60;0.90;;;;;;;19.07;51.30;99258.13;107089;1277;25428;-86
2022/07/17 08:51:26;;;;;;;3.10;0.80;;;;;;;19.08;51.69;99255.36;106803;1276;137511;-83
2022/07/17 08:53:53;;;;;;;2.50;1.00;;;;;;;19.15;52.51;99252.73;106861;1277;26342;-83
2022/07/17 08:56:34;;;;;;;1.70;0.70;;;;;;;19.18;51.88;99253.06;106510;1277;139582;-82
2022/07/17 08:59:01;;;;;;;1.00;0.50;;;;;;;19.10;49.33;99256.91;106893;1277;24424;-76
2022/07/17 09:01:42;;;;;;;1.40;0.70;;;;;;;19.18;50.91;99250.35;106833;1277;23290;-84
2022/07/17 09:04:10;;;;;;;3.60;0.60;;;;;;;19.34;50.61;99244.54;106965;1277;137817;-82
2022/07/17 09:06:37;;;;;;;1.60;0.60;;;;;;;19.50;49.77;99248.11;106813;1277;31519;-81
2022/07/17 09:09:13;;;;;;;1.30;0.50;;;;;;;19.62;48.76;99249.03;106978;1277;137503;-84
2022/07/17 09:12:01;;;;;;;1.80;0.60;;;;;;;19.59;48.48;99251.54;106598;1277;26045;-85
2022/07/17 09:14:40;;;;;;;1.80;0.70;;;;;;;19.51;49.66;99254.23;106940;1277;138280;-85
2022/07/17 09:17:09;;;;;;;1.00;0.30;;;;;;;19.52;48.91;99256.21;107225;1277;30583;-84
2022/07/17 09:19:50;;;;;;;1.90;0.40;;;;;;;19.63;48.96;99254.66;106730;1277;22719;-85
2022/07/17 09:22:21;;;;;;;1.80;0.60;;;;;;;19.57;48.09;99260.77;106253;1277;137249;-83
2022/07/17 09:24:50;;;;;;;1.90;0.40;;;;;;;19.58;48.32;99252.31;106163;1277;22561;-84
2022/07/17 09:27:23;;;;;;;1.30;0.40;;;;;;;19.84;47.76;99254.13;106216;1277;138216;-84
2022/07/17 09:29:55;;;;;;;1.60;0.30;;;;;;;20.12;47.49;99246.06;106218;1277;25609;-82
2022/07/17 09:32:25;;;;;;;1.10;0.50;;;;;;;20.39;47.78;99245.17;106283;1277;138552;-83
2022/07/17 09:34:54;;;;;;;2.60;0.60;;;;;;;20.43;47.14;99248.84;106253;1277;22727;-84
2022/07/17 09:37:23;;;;;;;1.30;0.40;;;;;;;20.49;47.32;99248.02;106380;1276;31844;-83
2022/07/17 09:39:51;;;;;;;1.60;0.70;;;;;;;20.70;47.46;99251.61;106156;1277;137806;-83
2022/07/17 09:42:29;;;;;;;1.90;0.40;;;;;;;20.67;46.20;99243.15;106403;1277;23376;-81
2022/07/17 09:45:08;;;;;;;1.70;0.60;;;;;;;20.39;45.29;99251.10;106353;1276;137319;-79
2022/07/17 09:47:38;;;;;;;1.30;0.50;;;;;;;20.27;45.85;99247.59;106303;1277;30459;-83
2022/07/17 09:50:08;;;;;;;1.50;0.60;;;;;;;20.47;45.48;99246.42;106190;1277;137726;-84
2022/07/17 09:52:37;;;;;;;1.90;0.60;;;;;;;20.66;46.52;99244.56;106262;1277;24430;-83
2022/07/17 09:55:05;;;;;;;1.30;0.40;;;;;;;20.75;45.83;99246.61;106644;1277;25238;-83
2022/07/17 09:57:34;;;;;;;1.20;0.70;;;;;;;20.98;45.43;99240.73;106545;1277;138042;-82
2022/07/17 10:00:11;;;;;;;1.40;0.50;;;;;;;21.25;44.96;99245.59;106130;1277;22667;-79
2022/07/17 10:02:43;;;;;;;2.40;0.70;;;;;;;21.59;44.91;99239.69;106400;1277;137635;-75
2022/07/17 10:05:12;;;;;;;0.70;0.30;;;;;;;21.70;44.39;99250.63;106454;1277;22535;-86
2022/07/17 10:07:42;;;;;;;2.40;0.60;;;;;;;21.58;42.83;99242.27;106931;1277;24414;-80
2022/07/17 10:10:10;;;;;;;1.60;0.30;;;;;;;21.36;42.30;99241.19;105920;1277;137530;-81
2022/07/17 10:12:40;;;;;;;2.50;0.50;;;;;;;21.49;42.38;99247.20;106157;1277;22541;-81
2022/07/17 10:15:08;;;;;;;1.60;0.60;;;;;;;21.67;42.50;99245.19;106229;1277;137429;-82
2022/07/17 10:17:49;;;;;;;2.70;0.50;;;;;;;21.85;43.19;99247.73;106144;1277;25254;-81
2022/07/17 10:20:30;;;;;;;1.90;0.60;;;;;;;21.69;41.95;99243.05;106120;1277;138402;-80
2022/07/17 10:22:57;;;;;;;1.80;0.60;;;;;;;21.40;41.30;99250.02;106213;1277;22627;-81
2022/07/17 10:25:25;;;;;;;2.00;0.40;;;;;;;21.28;42.17;99248.23;106202;1277;25355;-82
2022/07/17 10:27:55;;;;;;;1.70;0.50;;;;;;;21.07;42.23;99256.23;106073;1277;138062;-80
2022/07/17 10:30:28;;;;;;;2.40;0.50;;;;;;;20.80;43.40;99259.31;106307;1277;24249;-82
2022/07/17 10:33:00;;;;;;;3.40;0.90;;;;;;;20.52;43.81;99267.24;106119;1277;138553;-80
2022/07/17 10:35:28;;;;;;;1.20;0.60;;;;;;;20.33;44.67;99269.07;106142;1277;22536;-81
2022/07/17 10:38:12;;;;;;;1.50;0.70;;;;;;;20.55;45.76;99266.83;106041;1277;138600;-83
2022/07/17 10:40:39;;;;;;;3.10;0.80;;;;;;;20.91;45.52;99266.06;106196;1277;22637;-82
2022/07/17 10:43:07;;;;;;;2.40;0.70;;;;;;;21.18;44.86;99263.48;106237;1277;24319;-80
2022/07/17 10:45:37;;;;;;;3.80;0.90;;;;;;;21.42;45.29;99260.30;106580;1277;137513;-83
2022/07/17 10:48:21;;;;;;;2.80;0.90;;;;;;;21.72;43.85;99264.86;106480;1277;24312;-80
2022/07/17 10:50:55;;;;;;;3.00;1.00;;;;;;;21.96;43.30;99265.17;106066;1277;137871;-81
2022/07/17 10:53:26;;;;;;;3.30;0.70;;;;;;;21.99;42.85;99263.07;106150;1277;22701;-80
2022/07/17 10:56:04;;;;;;;2.80;0.80;;;;;;;21.80;41.86;99267.00;106855;1276;22696;-81
2022/07/17 10:58:40;;;;;;;1.40;0.80;;;;;;;21.55;41.88;99268.03;106531;1276;22538;-79
2022/07/17 11:01:10;;;;;;;4.30;1.00;;;;;;;21.39;42.59;99264.88;106365;1277;22541;-82
2022/07/17 11:03:56;;;;;;;0.80;0.50;;;;;;;21.32;42.14;99267.13;106071;1277;137354;-80
2022/07/17 11:06:25;;;;;;;1.00;0.60;;;;;;;21.49;42.50;99262.73;106805;1277;24341;-81
2022/07/17 11:08:57;;;;;;;1.50;0.70;;;;;;;21.47;41.04;99265.41;106167;1277;137323;-79
2022/07/17 11:11:48;;;;;;;4.10;0.60;;;;;;;21.47;40.68;99268.39;106610;1277;23296;-79
2022/07/17 11:14:31;;;;;;;1.50;0.60;;;;;;;21.54;40.89;99266.26;106419;1277;137899;-80
2022/07/17 11:16:57;;;;;;;1.90;0.80;;;;;;;21.47;41.57;99264.52;106612;1277;25499;-79
2022/07/17 11:19:41;;;;;;;2.30;0.70;;;;;;;21.31;41.60;99261.56;106501;1277;30468;-83
2022/07/17 11:22:11;;;;;;;2.70;0.90;;;;;;;21.22;42.07;99261.48;107002;1277;137447;-80
2022/07/17 11:24:50;;;;;;;1.30;0.70;;;;;;;21.24;43.52;99261.90;106940;1277;23345;-81
2022/07/17 11:28:03;;;;;;;3.20;0.60;;;;;;;21.71;43.04;99258.64;107041;1277;137570;-80
2022/07/17 11:30:50;;;;;;;3.00;0.70;;;;;;;21.81;41.95;99257.08;106728;1277;32141;-80